sensor_id;sensor_type;location;lat;lon;timestamp;pressure;altitude;pressure_sealevel;temperature;humidity
39435;BME280;66825;51.880;-0.518;2023-04-29T00:00:02;100841.06;;;18.28;41.68
39435;BME280;66825;51.880;-0.518;2023-04-29T00:02:31;100843.78;;;18.28;41.61
39435;BME280;66825;51.880;-0.518;2023-04-29T00:04:56;100847.63;;;18.27;41.90
39435;BME280;66825;51.880;-0.518;2023-04-29T00:07:22;100846.34;;;18.19;41.35
39435;BME280;66825;51.880;-0.518;2023-04-29T00:09:47;100855.28;;;18.24;41.60
39435;BME280;66825;51.880;-0.518;2023-04-29T00:12:13;100868.13;;;18.24;41.88
39435;BME280;66825;51.880;-0.518;2023-04-29T00:14:39;100864.56;;;18.23;41.70
39435;BME280;66825;51.880;-0.518;2023-04-29T00:17:04;100858.88;;;18.20;41.56
39435;BME280;66825;51.880;-0.518;2023-04-29T00:19:30;100866.75;;;18.21;41.86
39435;BME280;66825;51.880;-0.518;2023-04-29T00:21:55;100865.16;;;18.20;41.76
39435;BME280;66825;51.880;-0.518;2023-04-29T00:24:21;100850.34;;;18.07;41.76
39435;BME280;66825;51.880;-0.518;2023-04-29T00:26:46;100871.72;;;18.19;41.81
39435;BME280;66825;51.880;-0.518;2023-04-29T00:29:12;100866.53;;;18.18;41.61
39435;BME280;66825;51.880;-0.518;2023-04-29T00:31:37;100870.09;;;18.18;41.58
39435;BME280;66825;51.880;-0.518;2023-04-29T00:34:03;100866.84;;;18.16;41.57
39435;BME280;66825;51.880;-0.518;2023-04-29T00:36:28;100861.16;;;18.13;41.50
39435;BME280;66825;51.880;-0.518;2023-04-29T00:38:56;100864.41;;;18.15;41.59
39435;BME280;66825;51.880;-0.518;2023-04-29T00:41:22;100856.66;;;18.03;41.86
39435;BME280;66825;51.880;-0.518;2023-04-29T00:43:48;100870.16;;;18.13;41.54
39435;BME280;66825;51.880;-0.518;2023-04-29T00:46:13;100863.09;;;18.12;41.88
39435;BME280;66825;51.880;-0.518;2023-04-29T00:48:39;100865.00;;;18.12;41.58
39435;BME280;66825;51.880;-0.518;2023-04-29T00:51:05;100869.66;;;18.11;41.71
39435;BME280;66825;51.880;-0.518;2023-04-29T00:53:31;100868.81;;;18.10;41.65
39435;BME280;66825;51.880;-0.518;2023-04-29T00:55:57;100867.22;;;18.09;41.66
39435;BME280;66825;51.880;-0.518;2023-04-29T00:58:25;100855.88;;;18.02;41.83
39435;BME280;66825;51.880;-0.518;2023-04-29T01:01:01;100802.81;;;17.70;41.71
39435;BME280;66825;51.880;-0.518;2023-04-29T01:03:29;100865.59;;;18.08;41.92
39435;BME280;66825;51.880;-0.518;2023-04-29T01:12:07;100854.47;;;18.05;41.95
39435;BME280;66825;51.880;-0.518;2023-04-29T01:14:37;100858.28;;;18.04;41.63
39435;BME280;66825;51.880;-0.518;2023-04-29T01:17:10;100869.50;;;18.02;41.53
39435;BME280;66825;51.880;-0.518;2023-04-29T01:19:43;100865.94;;;18.02;41.78
39435;BME280;66825;51.880;-0.518;2023-04-29T01:22:10;100874.41;;;18.00;41.63
39435;BME280;66825;51.880;-0.518;2023-04-29T01:24:37;100870.88;;;18.00;41.51
39435;BME280;66825;51.880;-0.518;2023-04-29T01:27:22;100802.44;;;17.58;42.18
39435;BME280;66825;51.880;-0.518;2023-04-29T01:30:00;100872.00;;;17.99;41.55
39435;BME280;66825;51.880;-0.518;2023-04-29T01:38:15;100886.19;;;17.96;41.74
39435;BME280;66825;51.880;-0.518;2023-04-29T01:40:47;100889.19;;;17.94;41.94
39435;BME280;66825;51.880;-0.518;2023-04-29T01:43:21;100883.75;;;17.94;41.58
39435;BME280;66825;51.880;-0.518;2023-04-29T01:45:47;100888.66;;;17.92;41.62
39435;BME280;66825;51.880;-0.518;2023-04-29T01:48:13;100886.47;;;17.94;41.58
39435;BME280;66825;51.880;-0.518;2023-04-29T01:50:38;100896.03;;;17.91;41.92
39435;BME280;66825;51.880;-0.518;2023-04-29T01:53:04;100883.50;;;17.90;41.70
39435;BME280;66825;51.880;-0.518;2023-04-29T01:55:29;100817.31;;;17.41;41.40
39435;BME280;66825;51.880;-0.518;2023-04-29T01:57:55;100895.22;;;17.91;41.67
39435;BME280;66825;51.880;-0.518;2023-04-29T02:00:20;100848.97;;;17.61;41.70
39435;BME280;66825;51.880;-0.518;2023-04-29T02:02:46;100884.94;;;17.83;41.60
39435;BME280;66825;51.880;-0.518;2023-04-29T02:05:11;100906.41;;;17.89;41.84
39435;BME280;66825;51.880;-0.518;2023-04-29T02:07:37;100909.44;;;17.88;41.93
39435;BME280;66825;51.880;-0.518;2023-04-29T02:10:02;100907.81;;;17.87;42.02
39435;BME280;66825;51.880;-0.518;2023-04-29T02:12:28;100906.19;;;17.86;41.74
39435;BME280;66825;51.880;-0.518;2023-04-29T02:14:54;100904.56;;;17.85;41.44
39435;BME280;66825;51.880;-0.518;2023-04-29T02:17:19;100909.78;;;17.81;41.46
39435;BME280;66825;51.880;-0.518;2023-04-29T02:19:44;100908.72;;;17.77;41.51
39435;BME280;66825;51.880;-0.518;2023-04-29T02:22:10;100916.56;;;17.84;41.58
39435;BME280;66825;51.880;-0.518;2023-04-29T02:24:37;100904.88;;;17.83;41.45
39435;BME280;66825;51.880;-0.518;2023-04-29T02:27:03;100911.41;;;17.82;41.62
39435;BME280;66825;51.880;-0.518;2023-04-29T02:29:30;100903.00;;;17.78;41.39
39435;BME280;66825;51.880;-0.518;2023-04-29T02:31:56;100903.03;;;17.73;41.42
39435;BME280;66825;51.880;-0.518;2023-04-29T02:34:22;100926.13;;;17.81;41.76
39435;BME280;66825;51.880;-0.518;2023-04-29T02:36:48;100894.94;;;17.68;41.72
39435;BME280;66825;51.880;-0.518;2023-04-29T02:39:14;100920.16;;;17.79;41.78
39435;BME280;66825;51.880;-0.518;2023-04-29T02:41:39;100903.09;;;17.68;41.75
39435;BME280;66825;51.880;-0.518;2023-04-29T02:44:06;100919.34;;;17.78;41.42
39435;BME280;66825;51.880;-0.518;2023-04-29T02:46:32;100913.16;;;17.73;41.67
39435;BME280;66825;51.880;-0.518;2023-04-29T02:48:59;100907.16;;;17.71;41.45
39435;BME280;66825;51.880;-0.518;2023-04-29T02:51:25;100921.53;;;17.76;41.73
39435;BME280;66825;51.880;-0.518;2023-04-29T02:53:50;100918.03;;;17.76;41.58
39435;BME280;66825;51.880;-0.518;2023-04-29T02:56:16;100912.34;;;17.72;41.45
39435;BME280;66825;51.880;-0.518;2023-04-29T02:58:41;100916.41;;;17.75;41.28
39435;BME280;66825;51.880;-0.518;2023-04-29T03:01:07;100907.75;;;17.68;41.48
39435;BME280;66825;51.880;-0.518;2023-04-29T03:03:32;100916.97;;;17.72;41.49
39435;BME280;66825;51.880;-0.518;2023-04-29T03:05:58;100919.69;;;17.72;41.57
39435;BME280;66825;51.880;-0.518;2023-04-29T03:08:23;100853.94;;;17.30;41.67
39435;BME280;66825;51.880;-0.518;2023-04-29T03:10:49;100918.88;;;17.71;41.58
39435;BME280;66825;51.880;-0.518;2023-04-29T03:13:14;100925.44;;;17.70;41.64
39435;BME280;66825;51.880;-0.518;2023-04-29T03:15:40;100925.44;;;17.70;41.38
39435;BME280;66825;51.880;-0.518;2023-04-29T03:18:06;100920.28;;;17.69;41.46
39435;BME280;66825;51.880;-0.518;2023-04-29T03:20:31;100915.09;;;17.67;41.69
39435;BME280;66825;51.880;-0.518;2023-04-29T03:22:57;100917.81;;;17.67;41.20
39435;BME280;66825;51.880;-0.518;2023-04-29T03:25:22;100920.84;;;17.66;41.30
39435;BME280;66825;51.880;-0.518;2023-04-29T03:27:48;100915.41;;;17.66;41.50
39435;BME280;66825;51.880;-0.518;2023-04-29T03:30:13;100911.88;;;17.65;41.52
39435;BME280;66825;51.880;-0.518;2023-04-29T03:32:38;100915.69;;;17.64;41.38
39435;BME280;66825;51.880;-0.518;2023-04-29T03:35:04;100911.41;;;17.58;41.47
39435;BME280;66825;51.880;-0.518;2023-04-29T03:37:30;100926.88;;;17.62;41.35
39435;BME280;66825;51.880;-0.518;2023-04-29T03:39:55;100919.81;;;17.61;41.76
39435;BME280;66825;51.880;-0.518;2023-04-29T03:42:21;100927.16;;;17.61;41.54
39435;BME280;66825;51.880;-0.518;2023-04-29T03:44:46;100937.25;;;17.60;41.71
39435;BME280;66825;51.880;-0.518;2023-04-29T03:47:12;100931.81;;;17.60;41.52
39435;BME280;66825;51.880;-0.518;2023-04-29T03:49:38;100934.81;;;17.59;41.55
39435;BME280;66825;51.880;-0.518;2023-04-29T03:52:03;100919.38;;;17.49;41.45
39435;BME280;66825;51.880;-0.518;2023-04-29T03:54:29;100939.44;;;17.58;41.50
39435;BME280;66825;51.880;-0.518;2023-04-29T03:56:55;100919.38;;;17.49;41.55
39435;BME280;66825;51.880;-0.518;2023-04-29T03:59:20;100936.19;;;17.56;41.51
39435;BME280;66825;51.880;-0.518;2023-04-29T04:01:46;100899.38;;;17.35;41.49
39435;BME280;66825;51.880;-0.518;2023-04-29T04:04:11;100940.84;;;17.56;41.78
39435;BME280;66825;51.880;-0.518;2023-04-29T04:06:37;100932.66;;;17.56;41.46
39435;BME280;66825;51.880;-0.518;2023-04-29T04:09:03;100928.63;;;17.53;41.41
39435;BME280;66825;51.880;-0.518;2023-04-29T04:11:28;100938.41;;;17.54;41.56
39435;BME280;66825;51.880;-0.518;2023-04-29T04:13:54;100940.31;;;17.54;41.35
39435;BME280;66825;51.880;-0.518;2023-04-29T04:16:19;100935.16;;;17.52;41.75
39435;BME280;66825;51.880;-0.518;2023-04-29T04:18:45;100948.78;;;17.52;41.22
39435;BME280;66825;51.880;-0.518;2023-04-29T04:21:11;100943.63;;;17.51;41.70
39435;BME280;66825;51.880;-0.518;2023-04-29T04:23:38;100939.78;;;17.52;41.36
39435;BME280;66825;51.880;-0.518;2023-04-29T04:26:05;100953.69;;;17.50;41.54
39435;BME280;66825;51.880;-0.518;2023-04-29T04:28:31;100945.28;;;17.46;41.59
39435;BME280;66825;51.880;-0.518;2023-04-29T04:30:57;100955.63;;;17.50;41.46
39435;BME280;66825;51.880;-0.518;2023-04-29T04:33:23;100959.44;;;17.49;41.45
39435;BME280;66825;51.880;-0.518;2023-04-29T04:35:49;100939.13;;;17.36;41.72
39435;BME280;66825;51.880;-0.518;2023-04-29T04:38:14;100964.06;;;17.48;41.48
39435;BME280;66825;51.880;-0.518;2023-04-29T04:40:40;100962.47;;;17.47;41.43
39435;BME280;66825;51.880;-0.518;2023-04-29T04:43:07;100964.34;;;17.46;41.54
39435;BME280;66825;51.880;-0.518;2023-04-29T04:45:32;100954.56;;;17.45;41.37
39435;BME280;66825;51.880;-0.518;2023-04-29T04:47:58;100946.44;;;17.40;41.53
39435;BME280;66825;51.880;-0.518;2023-04-29T04:50:26;100961.38;;;17.43;41.21
39435;BME280;66825;51.880;-0.518;2023-04-29T04:52:54;100958.44;;;17.39;41.45
39435;BME280;66825;51.880;-0.518;2023-04-29T04:55:20;100963.81;;;17.44;41.59
39435;BME280;66825;51.880;-0.518;2023-04-29T04:57:46;100904.28;;;17.03;41.27
39435;BME280;66825;51.880;-0.518;2023-04-29T05:00:12;100915.13;;;17.08;41.53
39435;BME280;66825;51.880;-0.518;2023-04-29T05:02:37;100973.72;;;17.35;41.38
39435;BME280;66825;51.880;-0.518;2023-04-29T05:05:03;100980.75;;;17.41;41.30
39435;BME280;66825;51.880;-0.518;2023-04-29T05:07:28;100982.66;;;17.41;41.34
39435;BME280;66825;51.880;-0.518;2023-04-29T05:09:54;100990.03;;;17.40;41.62
39435;BME280;66825;51.880;-0.518;2023-04-29T05:12:19;100987.59;;;17.39;41.54
39435;BME280;66825;51.880;-0.518;2023-04-29T05:14:45;101000.13;;;17.40;41.59
39435;BME280;66825;51.880;-0.518;2023-04-29T05:17:10;101002.00;;;17.39;41.32
39435;BME280;66825;51.880;-0.518;2023-04-29T05:19:36;100997.41;;;17.35;41.13
39435;BME280;66825;51.880;-0.518;2023-04-29T05:22:01;101006.13;;;17.37;41.34
39435;BME280;66825;51.880;-0.518;2023-04-29T05:24:27;100951.16;;;16.95;41.44
39435;BME280;66825;51.880;-0.518;2023-04-29T05:26:53;101011.56;;;17.37;41.28
39435;BME280;66825;51.880;-0.518;2023-04-29T05:29:19;100953.34;;;16.93;41.08
39435;BME280;66825;51.880;-0.518;2023-04-29T05:31:44;100970.66;;;17.07;41.71
39435;BME280;66825;51.880;-0.518;2023-04-29T05:34:10;100985.34;;;17.11;41.50
39435;BME280;66825;51.880;-0.518;2023-04-29T05:36:35;101020.28;;;17.34;41.40
39435;BME280;66825;51.880;-0.518;2023-04-29T05:39:01;101029.28;;;17.34;41.49
39435;BME280;66825;51.880;-0.518;2023-04-29T05:41:26;101027.66;;;17.33;41.43
39435;BME280;66825;51.880;-0.518;2023-04-29T05:43:52;101022.22;;;17.33;41.71
39435;BME280;66825;51.880;-0.518;2023-04-29T05:46:17;101029.59;;;17.33;41.56
39435;BME280;66825;51.880;-0.518;2023-04-29T05:48:44;101028.75;;;17.32;41.29
39435;BME280;66825;51.880;-0.518;2023-04-29T05:51:11;101029.59;;;17.33;41.40
39435;BME280;66825;51.880;-0.518;2023-04-29T05:53:36;100958.81;;;16.88;41.14
39435;BME280;66825;51.880;-0.518;2023-04-29T05:56:03;101027.72;;;17.28;41.57
39435;BME280;66825;51.880;-0.518;2023-04-29T05:58:32;101038.84;;;17.32;41.20
39435;BME280;66825;51.880;-0.518;2023-04-29T06:00:58;101042.97;;;17.29;41.23
39435;BME280;66825;51.880;-0.518;2023-04-29T06:03:24;101034.78;;;17.29;41.24
39435;BME280;66825;51.880;-0.518;2023-04-29T06:05:50;101044.84;;;17.28;41.55
39435;BME280;66825;51.880;-0.518;2023-04-29T06:08:15;101031.22;;;17.28;41.27
39435;BME280;66825;51.880;-0.518;2023-04-29T06:10:41;101021.53;;;17.17;41.39
39435;BME280;66825;51.880;-0.518;2023-04-29T06:13:06;101036.97;;;17.27;41.38
39435;BME280;66825;51.880;-0.518;2023-04-29T06:15:32;101017.44;;;17.14;41.33
39435;BME280;66825;51.880;-0.518;2023-04-29T06:17:57;101035.34;;;17.26;41.46
39435;BME280;66825;51.880;-0.518;2023-04-29T06:20:23;100977.31;;;16.86;41.21
39435;BME280;66825;51.880;-0.518;2023-04-29T06:22:48;100981.72;;;16.81;41.51
39435;BME280;66825;51.880;-0.518;2023-04-29T06:25:14;101045.44;;;17.25;41.18
39435;BME280;66825;51.880;-0.518;2023-04-29T06:27:39;101049.25;;;17.24;41.40
39435;BME280;66825;51.880;-0.518;2023-04-29T06:30:05;101043.56;;;17.21;41.02
39435;BME280;66825;51.880;-0.518;2023-04-29T06:32:31;101044.91;;;17.23;41.29
39435;BME280;66825;51.880;-0.518;2023-04-29T06:34:56;101024.84;;;17.04;41.55
39435;BME280;66825;51.880;-0.518;2023-04-29T06:37:22;101059.31;;;17.24;41.56
39435;BME280;66825;51.880;-0.518;2023-04-29T06:39:47;101061.22;;;17.23;41.15
39435;BME280;66825;51.880;-0.518;2023-04-29T06:42:13;101055.78;;;17.23;41.33
39435;BME280;66825;51.880;-0.518;2023-04-29T06:44:38;101047.13;;;17.16;41.34
39435;BME280;66825;51.880;-0.518;2023-04-29T06:47:04;101048.47;;;17.19;41.11
39435;BME280;66825;51.880;-0.518;2023-04-29T06:49:29;101066.97;;;17.22;41.66
39435;BME280;66825;51.880;-0.518;2023-04-29T06:51:54;101055.28;;;17.16;41.18
39435;BME280;66825;51.880;-0.518;2023-04-29T06:54:20;101067.78;;;17.22;41.49
39435;BME280;66825;51.880;-0.518;2023-04-29T06:56:45;101075.13;;;17.22;41.16
39435;BME280;66825;51.880;-0.518;2023-04-29T06:59:12;101073.22;;;17.22;41.21
39435;BME280;66825;51.880;-0.518;2023-04-29T07:01:39;101075.13;;;17.22;41.11
39435;BME280;66825;51.880;-0.518;2023-04-29T07:04:05;101082.19;;;17.23;41.42
39435;BME280;66825;51.880;-0.518;2023-04-29T07:06:30;101079.47;;;17.23;41.38
39435;BME280;66825;51.880;-0.518;2023-04-29T07:08:56;101069.16;;;17.20;40.96
39435;BME280;66825;51.880;-0.518;2023-04-29T07:11:21;101074.03;;;17.23;41.29
39435;BME280;66825;51.880;-0.518;2023-04-29T07:13:49;101077.03;;;17.21;41.41
39435;BME280;66825;51.880;-0.518;2023-04-29T07:16:16;101063.22;;;17.12;41.29
39435;BME280;66825;51.880;-0.518;2023-04-29T07:18:46;101080.28;;;17.23;41.38
39435;BME280;66825;51.880;-0.518;2023-04-29T07:21:12;101083.81;;;17.24;40.97
39435;BME280;66825;51.880;-0.518;2023-04-29T07:23:37;101081.09;;;17.24;41.45
39435;BME280;66825;51.880;-0.518;2023-04-29T07:26:10;101065.59;;;17.19;41.39
39435;BME280;66825;51.880;-0.518;2023-04-29T07:28:36;101070.25;;;17.19;41.31
39435;BME280;66825;51.880;-0.518;2023-04-29T07:31:01;101062.97;;;17.09;41.27
39435;BME280;66825;51.880;-0.518;2023-04-29T07:33:27;101077.28;;;17.25;41.21
39435;BME280;66825;51.880;-0.518;2023-04-29T07:35:52;101085.44;;;17.25;41.00
39435;BME280;66825;51.880;-0.518;2023-04-29T07:38:18;101049.66;;;17.02;41.28
39435;BME280;66825;51.880;-0.518;2023-04-29T07:40:45;101093.63;;;17.25;41.47
39435;BME280;66825;51.880;-0.518;2023-04-29T07:43:11;101089.81;;;17.26;41.44
39435;BME280;66825;51.880;-0.518;2023-04-29T07:45:37;101093.63;;;17.25;41.33
39435;BME280;66825;51.880;-0.518;2023-04-29T07:48:04;101093.34;;;17.26;41.47
39435;BME280;66825;51.880;-0.518;2023-04-29T07:50:30;101038.28;;;16.90;41.23
39435;BME280;66825;51.880;-0.518;2023-04-29T07:52:58;101024.16;;;16.82;41.36
39435;BME280;66825;51.880;-0.518;2023-04-29T07:55:24;101101.50;;;17.26;41.42
39435;BME280;66825;51.880;-0.518;2023-04-29T07:57:51;101098.78;;;17.26;40.95
39435;BME280;66825;51.880;-0.518;2023-04-29T08:00:17;101097.69;;;17.27;41.47
39435;BME280;66825;51.880;-0.518;2023-04-29T08:02:43;101057.03;;;16.96;41.03
39435;BME280;66825;51.880;-0.518;2023-04-29T08:05:08;101121.94;;;17.29;41.11
39435;BME280;66825;51.880;-0.518;2023-04-29T08:07:34;101121.09;;;17.28;41.32
39435;BME280;66825;51.880;-0.518;2023-04-29T08:10:00;101126.84;;;17.27;41.29
39435;BME280;66825;51.880;-0.518;2023-04-29T08:12:25;101130.09;;;17.29;41.28
39435;BME280;66825;51.880;-0.518;2023-04-29T08:14:50;101134.44;;;17.30;41.29
39435;BME280;66825;51.880;-0.518;2023-04-29T08:17:16;101129.81;;;17.30;40.85
39435;BME280;66825;51.880;-0.518;2023-04-29T08:19:41;101120.81;;;17.30;41.03
39435;BME280;66825;51.880;-0.518;2023-04-29T08:22:07;101128.97;;;17.30;41.41
39435;BME280;66825;51.880;-0.518;2023-04-29T08:24:32;101117.00;;;17.31;41.48
39435;BME280;66825;51.880;-0.518;2023-04-29T08:26:59;101120.56;;;17.32;41.07
39435;BME280;66825;51.880;-0.518;2023-04-29T08:29:25;101108.91;;;17.21;41.34
39435;BME280;66825;51.880;-0.518;2023-04-29T08:31:51;101120.56;;;17.32;41.12
39435;BME280;66825;51.880;-0.518;2023-04-29T08:34:16;101120.56;;;17.32;41.09
39435;BME280;66825;51.880;-0.518;2023-04-29T08:36:42;101112.38;;;17.32;41.12
39435;BME280;66825;51.880;-0.518;2023-04-29T08:39:07;101128.44;;;17.33;41.10
39435;BME280;66825;51.880;-0.518;2023-04-29T08:41:33;101133.88;;;17.33;41.23
39435;BME280;66825;51.880;-0.518;2023-04-29T08:43:59;101128.44;;;17.33;41.23
39435;BME280;66825;51.880;-0.518;2023-04-29T08:46:25;101121.69;;;17.25;41.15
39435;BME280;66825;51.880;-0.518;2023-04-29T08:48:51;101132.78;;;17.34;41.08
39435;BME280;66825;51.880;-0.518;2023-04-29T08:51:17;101138.22;;;17.34;41.29
39435;BME280;66825;51.880;-0.518;2023-04-29T08:53:43;101130.88;;;17.35;40.82
39435;BME280;66825;51.880;-0.518;2023-04-29T08:56:12;101134.41;;;17.35;41.18
39435;BME280;66825;51.880;-0.518;2023-04-29T08:58:40;101119.50;;;17.22;41.33
39435;BME280;66825;51.880;-0.518;2023-04-29T09:01:09;101137.16;;;17.35;41.10
39435;BME280;66825;51.880;-0.518;2023-04-29T09:06:32;101135.50;;;17.34;41.46
39435;BME280;66825;51.880;-0.518;2023-04-29T09:08:58;101109.41;;;17.23;40.99
39435;BME280;66825;51.880;-0.518;2023-04-29T09:11:26;101141.50;;;17.36;40.95
39435;BME280;66825;51.880;-0.518;2023-04-29T09:13:58;101140.97;;;17.34;41.15
39435;BME280;66825;51.880;-0.518;2023-04-29T09:16:24;101150.47;;;17.37;41.31
39435;BME280;66825;51.880;-0.518;2023-04-29T09:18:50;101148.56;;;17.37;40.98
39435;BME280;66825;51.880;-0.518;2023-04-29T09:21:20;101144.22;;;17.36;40.92
39435;BME280;66825;51.880;-0.518;2023-04-29T09:23:47;101154.28;;;17.36;40.88
39435;BME280;66825;51.880;-0.518;2023-04-29T09:26:13;101147.75;;;17.37;41.53
39435;BME280;66825;51.880;-0.518;2023-04-29T09:28:40;101083.69;;;16.99;41.07
39435;BME280;66825;51.880;-0.518;2023-04-29T09:31:08;101145.31;;;17.35;41.27
39435;BME280;66825;51.880;-0.518;2023-04-29T09:33:50;101132.28;;;17.27;40.97
39435;BME280;66825;51.880;-0.518;2023-04-29T09:39:01;101145.56;;;17.39;41.09
39435;BME280;66825;51.880;-0.518;2023-04-29T09:41:26;101149.94;;;17.35;41.16
39435;BME280;66825;51.880;-0.518;2023-04-29T09:44:05;101155.38;;;17.40;41.26
39435;BME280;66825;51.880;-0.518;2023-04-29T09:46:34;101153.75;;;17.39;40.90
39435;BME280;66825;51.880;-0.518;2023-04-29T09:49:21;101158.09;;;17.40;41.18
39435;BME280;66825;51.880;-0.518;2023-04-29T09:51:56;101162.41;;;17.41;40.90
39435;BME280;66825;51.880;-0.518;2023-04-29T09:54:23;101164.34;;;17.40;40.98
39435;BME280;66825;51.880;-0.518;2023-04-29T09:56:51;101161.63;;;17.40;41.34
39435;BME280;66825;51.880;-0.518;2023-04-29T09:59:18;101155.38;;;17.40;41.02
39435;BME280;66825;51.880;-0.518;2023-04-29T10:01:47;101157.81;;;17.41;41.13
39435;BME280;66825;51.880;-0.518;2023-04-29T10:04:14;101148.28;;;17.39;41.33
39435;BME280;66825;51.880;-0.518;2023-04-29T10:06:40;101149.63;;;17.41;41.01
39435;BME280;66825;51.880;-0.518;2023-04-29T10:09:08;101152.34;;;17.41;41.14
39435;BME280;66825;51.880;-0.518;2023-04-29T10:11:35;101101.88;;;17.09;41.33
39435;BME280;66825;51.880;-0.518;2023-04-29T10:14:03;101155.88;;;17.42;41.28
39435;BME280;66825;51.880;-0.518;2023-04-29T10:16:33;101141.50;;;17.31;41.15
39435;BME280;66825;51.880;-0.518;2023-04-29T10:19:06;101140.91;;;17.39;41.19
39435;BME280;66825;51.880;-0.518;2023-04-29T10:21:36;101149.34;;;17.43;41.07
39435;BME280;66825;51.880;-0.518;2023-04-29T10:24:02;101082.34;;;16.97;41.07
39435;BME280;66825;51.880;-0.518;2023-04-29T10:26:29;101154.00;;;17.42;41.09
39435;BME280;66825;51.880;-0.518;2023-04-29T10:28:55;101155.63;;;17.43;41.07
39435;BME280;66825;51.880;-0.518;2023-04-29T10:31:21;101064.69;;;16.94;41.02
39435;BME280;66825;51.880;-0.518;2023-04-29T10:33:50;101140.91;;;17.39;41.40
39435;BME280;66825;51.880;-0.518;2023-04-29T10:36:19;101150.97;;;17.44;41.14
39435;BME280;66825;51.880;-0.518;2023-04-29T10:38:48;101145.53;;;17.44;41.15
39435;BME280;66825;51.880;-0.518;2023-04-29T10:41:22;101132.25;;;17.32;41.33
39435;BME280;66825;51.880;-0.518;2023-04-29T10:43:51;101151.78;;;17.44;41.34
39435;BME280;66825;51.880;-0.518;2023-04-29T10:48:46;101141.16;;;17.43;41.39
39435;BME280;66825;51.880;-0.518;2023-04-29T10:51:12;101145.22;;;17.45;40.92
39435;BME280;66825;51.880;-0.518;2023-04-29T10:54:16;101143.34;;;17.46;41.32
39435;BME280;66825;51.880;-0.518;2023-04-29T10:56:51;101144.16;;;17.46;41.32
39435;BME280;66825;51.880;-0.518;2023-04-29T11:02:06;101148.47;;;17.53;41.27
39435;BME280;66825;51.880;-0.518;2023-04-29T11:04:32;101146.81;;;17.57;41.57
39435;BME280;66825;51.880;-0.518;2023-04-29T11:06:57;101138.06;;;17.60;42.67
39435;BME280;66825;51.880;-0.518;2023-04-29T11:09:29;101135.31;;;17.65;42.32
39435;BME280;66825;51.880;-0.518;2023-04-29T11:14:36;101139.56;;;17.76;42.95
39435;BME280;66825;51.880;-0.518;2023-04-29T11:17:04;101141.16;;;17.83;43.08
39435;BME280;66825;51.880;-0.518;2023-04-29T11:19:35;101132.97;;;17.88;43.04
39435;BME280;66825;51.880;-0.518;2023-04-29T11:22:24;101132.66;;;17.89;42.32
39435;BME280;66825;51.880;-0.518;2023-04-29T11:27:19;101139.97;;;17.99;42.55
39435;BME280;66825;51.880;-0.518;2023-04-29T11:29:48;101150.31;;;18.02;42.23
39435;BME280;66825;51.880;-0.518;2023-04-29T11:32:14;101145.09;;;18.06;42.21
39435;BME280;66825;51.880;-0.518;2023-04-29T11:34:39;101125.28;;;17.95;42.32
39435;BME280;66825;51.880;-0.518;2023-04-29T11:37:05;101149.41;;;18.12;41.88
39435;BME280;66825;51.880;-0.518;2023-04-29T11:39:34;101135.81;;;18.07;41.91
39435;BME280;66825;51.880;-0.518;2023-04-29T11:42:06;101139.84;;;18.15;41.90
39435;BME280;66825;51.880;-0.518;2023-04-29T11:44:33;101126.25;;;18.09;41.84
39435;BME280;66825;51.880;-0.518;2023-04-29T11:47:08;101143.84;;;18.22;41.61
39435;BME280;66825;51.880;-0.518;2023-04-29T11:49:34;101134.31;;;18.20;41.72
39435;BME280;66825;51.880;-0.518;2023-04-29T11:52:01;101142.19;;;18.27;41.76
39435;BME280;66825;51.880;-0.518;2023-04-29T11:54:28;101134.22;;;18.30;41.45
39435;BME280;66825;51.880;-0.518;2023-04-29T11:56:54;101135.56;;;18.33;41.46
39435;BME280;66825;51.880;-0.518;2023-04-29T11:59:20;101145.88;;;18.36;41.50
39435;BME280;66825;51.880;-0.518;2023-04-29T12:01:47;101142.34;;;18.35;41.14
39435;BME280;66825;51.880;-0.518;2023-04-29T12:04:13;101144.22;;;18.40;41.30
39435;BME280;66825;51.880;-0.518;2023-04-29T12:06:38;101134.94;;;18.41;41.22
39435;BME280;66825;51.880;-0.518;2023-04-29T12:09:05;101141.72;;;18.44;41.29
39435;BME280;66825;51.880;-0.518;2023-04-29T12:11:31;101121.69;;;18.29;41.40
39435;BME280;66825;51.880;-0.518;2023-04-29T12:13:57;101129.72;;;18.45;41.44
39435;BME280;66825;51.880;-0.518;2023-04-29T12:16:22;101135.41;;;18.48;41.32
39435;BME280;66825;51.880;-0.518;2023-04-29T12:18:50;101118.75;;;18.50;41.32
39435;BME280;66825;51.880;-0.518;2023-04-29T12:21:16;101120.06;;;18.52;41.36
39435;BME280;66825;51.880;-0.518;2023-04-29T12:23:41;101114.34;;;18.54;41.23
39435;BME280;66825;51.880;-0.518;2023-04-29T12:26:07;101124.66;;;18.57;41.13
39435;BME280;66825;51.880;-0.518;2023-04-29T12:28:33;101109.38;;;18.56;41.53
39435;BME280;66825;51.880;-0.518;2023-04-29T12:30:59;101106.91;;;18.60;41.47
39435;BME280;66825;51.880;-0.518;2023-04-29T12:33:27;101116.41;;;18.62;41.40
39435;BME280;66825;51.880;-0.518;2023-04-29T12:35:57;101123.22;;;18.65;41.30
39435;BME280;66825;51.880;-0.518;2023-04-29T12:38:28;101122.63;;;18.68;41.38
39435;BME280;66825;51.880;-0.518;2023-04-29T12:40:58;101121.53;;;18.69;41.62
39435;BME280;66825;51.880;-0.518;2023-04-29T12:43:28;101115.78;;;18.70;41.81
39435;BME280;66825;51.880;-0.518;2023-04-29T12:45:59;101125.28;;;18.73;41.60
39435;BME280;66825;51.880;-0.518;2023-04-29T12:48:29;101126.66;;;18.76;41.61
39435;BME280;66825;51.880;-0.518;2023-04-29T12:50:55;101124.41;;;18.78;41.48
39435;BME280;66825;51.880;-0.518;2023-04-29T12:53:22;101124.94;;;18.80;41.42
39435;BME280;66825;51.880;-0.518;2023-04-29T12:55:48;101115.72;;;18.76;41.47
39435;BME280;66825;51.880;-0.518;2023-04-29T12:58:13;101115.13;;;18.79;41.55
39435;BME280;66825;51.880;-0.518;2023-04-29T13:00:39;101108.63;;;18.75;41.16
39435;BME280;66825;51.880;-0.518;2023-04-29T13:03:04;101116.69;;;18.85;41.62
39435;BME280;66825;51.880;-0.518;2023-04-29T13:05:30;101046.81;;;18.40;41.19